Time;durP1;ratioP1;P1;durP2;ratioP2;P2;SDS_P1;SDS_P2;PMS_P1;PMS_P2;Temp;Humidity;BMP_temperature;BMP_pressure;BME280_temperature;BME280_humidity;BME280_pressure;Samples;Min_cycle;Max_cycle;Signal;HPM_P1;HPM_P2
2023/12/01 00:02:11;;;;;;;;;;;;;;;-1.97;nan;100502.94;5046877;28;19982;-85
2023/12/01 00:04:37;;;;;;;;;;;;;;;-1.98;nan;100496.03;5044651;28;19925;-85
2023/12/01 00:07:03;;;;;;;;;;;;;;;-1.98;nan;100496.84;5048363;28;19987;-85
2023/12/01 00:09:28;;;;;;;;;;;;;;;-1.95;nan;100498.34;5043883;28;19913;-85
2023/12/01 00:11:53;;;;;;;;;;;;;;;-1.94;nan;100498.16;5046722;28;20026;-85
2023/12/01 00:14:19;;;;;;;;;;;;;;;-1.95;nan;100495.72;5047492;28;19995;-84
2023/12/01 00:16:44;;;;;;;;;;;;;;;-1.99;nan;100499.66;5042842;28;20416;-85
2023/12/01 00:19:09;;;;;;;;;;;;;;;-2.06;nan;100498.72;5047157;28;20008;-85
2023/12/01 00:21:35;;;;;;;;;;;;;;;-2.09;nan;100497.25;5050248;28;19916;-85
2023/12/01 00:24:00;;;;;;;;;;;;;;;-2.08;nan;100501.50;5044125;28;19923;-85
2023/12/01 00:26:26;;;;;;;;;;;;;;;-2.08;nan;100496.25;5044825;28;19921;-85
2023/12/01 00:28:51;;;;;;;;;;;;;;;-2.09;nan;100493.81;5048479;28;19925;-85
2023/12/01 00:31:16;;;;;;;;;;;;;;;-2.08;nan;100498.06;5043940;28;19916;-84
2023/12/01 00:33:42;;;;;;;;;;;;;;;-2.09;nan;100497.25;5043524;28;21678;-87
2023/12/01 00:36:07;;;;;;;;;;;;;;;-2.08;nan;100500.69;5046601;28;19917;-86
2023/12/01 00:38:34;;;;;;;;;;;;;;;-2.09;nan;100505.13;5045656;28;19928;-85
2023/12/01 00:41:00;;;;;;;;;;;;;;;-2.10;nan;100508.75;5043664;28;19920;-85
2023/12/01 00:43:26;;;;;;;;;;;;;;;-2.12;nan;100513.34;5044355;28;20400;-85
2023/12/01 00:45:51;;;;;;;;;;;;;;;-2.11;nan;100514.16;5041275;28;20316;-84
2023/12/01 00:48:17;;;;;;;;;;;;;;;-2.13;nan;100511.72;5041034;28;19931;-85
2023/12/01 00:50:42;;;;;;;;;;;;;;;-2.14;nan;100510.91;5044449;28;19962;-85
2023/12/01 00:53:08;;;;;;;;;;;;;;;-2.14;nan;100508.28;5041963;28;19928;-85
2023/12/01 00:55:34;;;;;;;;;;;;;;;-2.12;nan;100510.72;5043199;28;20003;-85
2023/12/01 00:57:59;;;;;;;;;;;;;;;-2.14;nan;100510.09;5044901;28;20019;-86
2023/12/01 01:00:25;;;;;;;;;;;;;;;-2.15;nan;100504.03;5041238;28;19931;-87
2023/12/01 01:02:50;;;;;;;;;;;;;;;-2.16;nan;100517.28;5042802;28;19966;-85
2023/12/01 01:05:16;;;;;;;;;;;;;;;-2.18;nan;100512.22;5043764;28;19917;-85
2023/12/01 01:07:42;;;;;;;;;;;;;;;-2.19;nan;100521.06;5042459;28;19925;-85
2023/12/01 01:10:07;;;;;;;;;;;;;;;-2.20;nan;100518.63;5040780;28;19926;-85
2023/12/01 01:12:33;;;;;;;;;;;;;;;-2.19;nan;100521.06;5043673;28;19932;-84
2023/12/01 01:15:02;;;;;;;;;;;;;;;-2.19;nan;100526.31;5039884;28;21065;-85
2023/12/01 01:17:28;;;;;;;;;;;;;;;-2.21;nan;100523.06;5039726;28;19927;-85
2023/12/01 01:19:53;;;;;;;;;;;;;;;-2.20;nan;100522.06;5042649;28;19929;-85
2023/12/01 01:22:19;;;;;;;;;;;;;;;-2.22;nan;100521.41;5042505;28;19964;-85
2023/12/01 01:24:45;;;;;;;;;;;;;;;-2.20;nan;100529.94;5044447;28;20423;-85
2023/12/01 01:27:11;;;;;;;;;;;;;;;-2.19;nan;100525.50;5047848;28;19917;-85
2023/12/01 01:29:36;;;;;;;;;;;;;;;-2.20;nan;100524.69;5043384;28;19921;-85
2023/12/01 01:32:01;;;;;;;;;;;;;;;-2.18;nan;100533.22;5043298;28;20583;-85
2023/12/01 01:34:27;;;;;;;;;;;;;;;-2.18;nan;100530.59;5041461;28;19924;-85
2023/12/01 01:36:52;;;;;;;;;;;;;;;-2.18;nan;100524.50;5040489;28;20331;-85
2023/12/01 01:39:18;;;;;;;;;;;;;;;-2.18;nan;100521.88;5047112;28;19928;-85
2023/12/01 01:41:43;;;;;;;;;;;;;;;-2.18;nan;100516.63;5045101;28;20012;-85
2023/12/01 01:44:08;;;;;;;;;;;;;;;-2.18;nan;100517.47;5042686;28;20282;-85
2023/12/01 01:46:35;;;;;;;;;;;;;;;-2.17;nan;100519.09;5045478;28;19940;-84
2023/12/01 01:49:01;;;;;;;;;;;;;;;-2.16;nan;100523.34;5045989;28;19939;-85
2023/12/01 01:51:26;;;;;;;;;;;;;;;-2.18;nan;100525.34;5040853;28;20672;-85
2023/12/01 01:53:52;;;;;;;;;;;;;;;-2.20;nan;100522.06;5043624;28;19917;-86
2023/12/01 01:56:19;;;;;;;;;;;;;;;-2.20;nan;100511.56;5046414;28;19917;-85
2023/12/01 01:58:44;;;;;;;;;;;;;;;-2.22;nan;100516.16;5041589;28;19924;-84
2023/12/01 02:01:10;;;;;;;;;;;;;;;-2.24;nan;100518.16;5046353;28;20569;-85
2023/12/01 02:03:35;;;;;;;;;;;;;;;-2.24;nan;100517.34;5042811;28;20400;-85
2023/12/01 02:06:07;;;;;;;;;;;;;;;-2.25;nan;100526.19;5041480;28;19952;-85
2023/12/01 02:08:36;;;;;;;;;;;;;;;-2.26;nan;100525.38;5048853;28;20395;-85
2023/12/01 02:11:01;;;;;;;;;;;;;;;-2.26;nan;100519.31;5043859;28;19921;-84
2023/12/01 02:13:28;;;;;;;;;;;;;;;-2.29;nan;100535.41;5046295;28;20019;-85
2023/12/01 02:15:53;;;;;;;;;;;;;;;-2.34;nan;100535.88;5051497;28;19974;-85
2023/12/01 02:18:20;;;;;;;;;;;;;;;-2.35;nan;100536.88;5042971;28;19964;-85
2023/12/01 02:20:46;;;;;;;;;;;;;;;-2.36;nan;100537.88;5048220;28;19925;-85
2023/12/01 02:23:11;;;;;;;;;;;;;;;-2.36;nan;100534.44;5051888;28;19917;-84
2023/12/01 02:25:36;;;;;;;;;;;;;;;-2.39;nan;100530.34;5045038;28;19928;-85
2023/12/01 02:28:02;;;;;;;;;;;;;;;-2.39;nan;100524.28;5046273;28;20296;-84
2023/12/01 02:30:27;;;;;;;;;;;;;;;-2.39;nan;100534.78;5045601;28;19917;-85
2023/12/01 02:32:52;;;;;;;;;;;;;;;-2.38;nan;100531.16;5050220;28;19924;-85
2023/12/01 02:35:18;;;;;;;;;;;;;;;-2.39;nan;100526.91;5043354;28;20402;-84
2023/12/01 02:37:43;;;;;;;;;;;;;;;-2.42;nan;100528.06;5048084;28;20388;-85
2023/12/01 02:40:15;;;;;;;;;;;;;;;-2.45;nan;100526.59;5043407;28;20304;-85
2023/12/01 02:42:49;;;;;;;;;;;;;;;-2.45;nan;100525.78;5044446;28;19928;-85
2023/12/01 02:45:15;;;;;;;;;;;;;;;-2.48;nan;100518.25;5050865;28;19928;-85
2023/12/01 02:47:40;;;;;;;;;;;;;;;-2.50;nan;100520.22;5046241;28;19928;-85
2023/12/01 02:50:09;;;;;;;;;;;;;;;-2.50;nan;100517.59;5051864;28;20039;-85
2023/12/01 02:52:35;;;;;;;;;;;;;;;-2.53;nan;100518.72;5043830;28;19924;-85
2023/12/01 02:55:00;;;;;;;;;;;;;;;-2.52;nan;100511.69;5046484;28;20285;-85
2023/12/01 02:57:26;;;;;;;;;;;;;;;-2.55;nan;100509.41;5041391;28;21608;-85
2023/12/01 02:59:51;;;;;;;;;;;;;;;-2.59;nan;100516.78;5042649;28;20458;-85
2023/12/01 03:02:17;;;;;;;;;;;;;;;-2.61;nan;100513.53;5043350;28;20651;-85
2023/12/01 03:04:43;;;;;;;;;;;;;;;-2.63;nan;100514.69;5050228;28;20440;-85
2023/12/01 03:07:08;;;;;;;;;;;;;;;-2.65;nan;100519.28;5044407;28;19960;-85
2023/12/01 03:09:33;;;;;;;;;;;;;;;-2.63;nan;100522.56;5048948;28;19983;-84
2023/12/01 03:11:59;;;;;;;;;;;;;;;-2.65;nan;100522.72;5045894;28;19948;-84
2023/12/01 03:14:24;;;;;;;;;;;;;;;-2.67;nan;100516.00;5044178;28;19940;-85
2023/12/01 03:16:49;;;;;;;;;;;;;;;-2.69;nan;100524.03;5039669;28;20037;-85
2023/12/01 03:19:15;;;;;;;;;;;;;;;-2.74;nan;100516.66;5042826;28;19921;-85
2023/12/01 03:21:40;;;;;;;;;;;;;;;-2.74;nan;100521.09;5047384;28;19971;-85
2023/12/01 03:24:09;;;;;;;;;;;;;;;-2.72;nan;100519.13;5045534;28;19917;-85
2023/12/01 03:26:35;;;;;;;;;;;;;;;-2.72;nan;100520.91;5043394;28;19960;-84
2023/12/01 03:29:00;;;;;;;;;;;;;;;-2.74;nan;100519.28;5048161;28;19920;-85
2023/12/01 03:31:25;;;;;;;;;;;;;;;-2.71;nan;100525.16;5041492;28;20650;-85
2023/12/01 03:33:51;;;;;;;;;;;;;;;-2.70;nan;100521.56;5041645;28;19924;-84
2023/12/01 03:36:16;;;;;;;;;;;;;;;-2.72;nan;100520.91;5048033;28;19917;-85
2023/12/01 03:38:41;;;;;;;;;;;;;;;-2.72;nan;100520.91;5045283;28;20000;-85
2023/12/01 03:41:07;;;;;;;;;;;;;;;-2.72;nan;100532.22;5040868;28;19917;-85
2023/12/01 03:43:33;;;;;;;;;;;;;;;-2.72;nan;100523.53;5044821;28;19920;-85
2023/12/01 03:45:58;;;;;;;;;;;;;;;-2.76;nan;100528.31;5043240;28;19924;-85
2023/12/01 03:48:24;;;;;;;;;;;;;;;-2.78;nan;100531.09;5049527;28;19917;-85
2023/12/01 03:50:50;;;;;;;;;;;;;;;-2.83;nan;100527.34;5042917;28;20130;-84
2023/12/01 03:53:15;;;;;;;;;;;;;;;-2.88;nan;100532.25;5047293;28;19927;-85
2023/12/01 03:55:41;;;;;;;;;;;;;;;-2.90;nan;100532.41;5052409;28;19917;-84
2023/12/01 03:58:06;;;;;;;;;;;;;;;-2.88;nan;100538.31;5042738;28;20392;-85
2023/12/01 04:00:32;;;;;;;;;;;;;;;-2.86;nan;100531.13;5041454;28;21185;-84
2023/12/01 04:02:57;;;;;;;;;;;;;;;-2.84;nan;100531.78;5041122;28;19971;-85
2023/12/01 04:05:25;;;;;;;;;;;;;;;-2.81;nan;100528.81;5043236;28;19928;-85
2023/12/01 04:07:53;;;;;;;;;;;;;;;-2.81;nan;100526.19;5037862;28;19921;-85
2023/12/01 04:10:19;;;;;;;;;;;;;;;-2.82;nan;100524.56;5046689;28;19917;-85
2023/12/01 04:12:45;;;;;;;;;;;;;;;-2.85;nan;100524.91;5042835;28;19927;-84
2023/12/01 04:15:14;;;;;;;;;;;;;;;-2.87;nan;100531.25;5042791;28;20652;-84
2023/12/01 04:17:42;;;;;;;;;;;;;;;-2.93;nan;100527.50;5045271;28;19920;-84
2023/12/01 04:20:20;;;;;;;;;;;;;;;-2.98;nan;100531.63;5043146;28;19921;-85
2023/12/01 04:22:47;;;;;;;;;;;;;;;-3.03;nan;100533.94;5046168;28;19920;-85
2023/12/01 04:25:12;;;;;;;;;;;;;;;-3.06;nan;100533.25;5038226;28;20478;-85
2023/12/01 04:27:38;;;;;;;;;;;;;;;-3.11;nan;100532.09;5043456;28;19917;-85
2023/12/01 04:30:04;;;;;;;;;;;;;;;-3.15;nan;100536.88;5044424;28;19928;-85
2023/12/01 04:32:29;;;;;;;;;;;;;;;-3.18;nan;100544.25;5043666;28;19963;-85
2023/12/01 04:34:54;;;;;;;;;;;;;;;-3.19;nan;100547.84;5042166;28;19924;-85
2023/12/01 04:37:19;;;;;;;;;;;;;;;-3.20;nan;100551.44;5046578;28;20343;-85
2023/12/01 04:39:45;;;;;;;;;;;;;;;-3.21;nan;100558.50;5042617;28;20420;-85
2023/12/01 04:42:10;;;;;;;;;;;;;;;-3.20;nan;100559.31;5043404;28;20434;-84
2023/12/01 04:44:35;;;;;;;;;;;;;;;-3.20;nan;100556.69;5042699;28;19935;-85
2023/12/01 04:47:01;;;;;;;;;;;;;;;-3.22;nan;100563.91;5045568;28;19927;-85
2023/12/01 04:49:26;;;;;;;;;;;;;;;-3.25;nan;100564.19;5044461;28;20319;-86
2023/12/01 04:51:51;;;;;;;;;;;;;;;-3.26;nan;100562.56;5046998;28;19971;-85
2023/12/01 04:54:17;;;;;;;;;;;;;;;-3.29;nan;100568.97;5039940;28;20430;-85
2023/12/01 04:56:42;;;;;;;;;;;;;;;-3.30;nan;100577.78;5049187;28;19951;-85
2023/12/01 04:59:07;;;;;;;;;;;;;;;-3.31;nan;100581.41;5043351;28;19928;-85
2023/12/01 05:01:35;;;;;;;;;;;;;;;-3.31;nan;100580.59;5041944;28;19924;-85
2023/12/01 05:04:01;;;;;;;;;;;;;;;-3.35;nan;100575.66;5039948;28;19999;-85
2023/12/01 05:06:26;;;;;;;;;;;;;;;-3.39;nan;100579.59;5041141;28;20020;-85
2023/12/01 05:08:51;;;;;;;;;;;;;;;-3.41;nan;100578.09;5043527;28;19966;-85
2023/12/01 05:11:17;;;;;;;;;;;;;;;-3.42;nan;100590.38;5045620;28;19956;-85
2023/12/01 05:13:42;;;;;;;;;;;;;;;-3.40;nan;100585.00;5049992;28;19925;-85
2023/12/01 05:16:08;;;;;;;;;;;;;;;-3.43;nan;100583.50;5043317;28;20289;-85
2023/12/01 05:18:33;;;;;;;;;;;;;;;-3.44;nan;100581.88;5038775;28;19924;-85
2023/12/01 05:20:58;;;;;;;;;;;;;;;-3.48;nan;100588.41;5048376;28;21226;-85
2023/12/01 05:23:23;;;;;;;;;;;;;;;-3.53;nan;100582.03;5046934;28;19927;-85
2023/12/01 05:25:50;;;;;;;;;;;;;;;-3.55;nan;100584.81;5045870;28;19917;-85
2023/12/01 05:28:15;;;;;;;;;;;;;;;-3.55;nan;100584.81;5045509;28;20015;-85
2023/12/01 05:30:43;;;;;;;;;;;;;;;-3.54;nan;100586.44;5051033;28;19981;-84
2023/12/01 05:33:09;;;;;;;;;;;;;;;-3.52;nan;100588.91;5052849;28;19920;-85
2023/12/01 05:35:35;;;;;;;;;;;;;;;-3.54;nan;100589.06;5049073;28;19916;-84
2023/12/01 05:38:04;;;;;;;;;;;;;;;-3.54;nan;100588.25;5048074;28;20015;-85
2023/12/01 05:40:36;;;;;;;;;;;;;;;-3.56;nan;100582.34;5049454;28;20496;-85
2023/12/01 05:43:02;;;;;;;;;;;;;;;-3.59;nan;100572.16;5044739;28;19925;-85
2023/12/01 05:45:28;;;;;;;;;;;;;;;-3.60;nan;100570.53;5043662;28;19924;-85
2023/12/01 05:47:54;;;;;;;;;;;;;;;-3.58;nan;100579.91;5048821;28;19932;-85
2023/12/01 05:50:23;;;;;;;;;;;;;;;-3.58;nan;100577.28;5044554;28;19921;-85
2023/12/01 05:52:51;;;;;;;;;;;;;;;-3.58;nan;100574.66;5047062;28;19917;-85
2023/12/01 05:55:17;;;;;;;;;;;;;;;-3.60;nan;100568.72;5048504;28;20031;-84
2023/12/01 05:57:42;;;;;;;;;;;;;;;-3.62;nan;100578.56;5041849;28;19924;-85
2023/12/01 06:00:12;;;;;;;;;;;;;;;-3.65;nan;100573.63;5044411;28;19932;-85
2023/12/01 06:02:51;;;;;;;;;;;;;;;-3.67;nan;100572.97;5042735;28;19917;-85
2023/12/01 06:05:18;;;;;;;;;;;;;;;-3.70;nan;100576.75;5045870;28;19925;-85
2023/12/01 06:07:44;;;;;;;;;;;;;;;-3.72;nan;100567.41;5041115;28;19928;-85
2023/12/01 06:10:10;;;;;;;;;;;;;;;-3.71;nan;100569.06;5044439;28;19962;-85
2023/12/01 06:12:37;;;;;;;;;;;;;;;-3.71;nan;100574.28;5047814;28;19916;-85
2023/12/01 06:15:05;;;;;;;;;;;;;;;-3.73;nan;100569.22;5044567;28;20754;-85
2023/12/01 06:17:30;;;;;;;;;;;;;;;-3.73;nan;100581.50;5044483;28;19924;-85
2023/12/01 06:19:56;;;;;;;;;;;;;;;-3.75;nan;100584.25;5046959;28;19928;-85
2023/12/01 06:22:21;;;;;;;;;;;;;;;-3.75;nan;100578.22;5049198;28;20621;-85
2023/12/01 06:24:46;;;;;;;;;;;;;;;-3.76;nan;100566.09;5044558;28;19993;-84
2023/12/01 06:27:11;;;;;;;;;;;;;;;-3.78;nan;100573.28;5047155;28;20007;-85
2023/12/01 06:29:37;;;;;;;;;;;;;;;-3.80;nan;100575.22;5044770;28;20116;-85
2023/12/01 06:32:03;;;;;;;;;;;;;;;-3.80;nan;100572.63;5037572;28;19921;-85
2023/12/01 06:34:28;;;;;;;;;;;;;;;-3.79;nan;100582.09;5040608;28;19917;-84
2023/12/01 06:36:58;;;;;;;;;;;;;;;-3.79;nan;100584.72;5045274;28;19935;-85
2023/12/01 06:39:25;;;;;;;;;;;;;;;-3.79;nan;100595.19;5046575;28;19975;-84
2023/12/01 06:41:50;;;;;;;;;;;;;;;-3.80;nan;100586.53;5045914;28;19917;-86
2023/12/01 06:44:16;;;;;;;;;;;;;;;-3.81;nan;100592.75;5041508;28;20295;-85
2023/12/01 06:46:41;;;;;;;;;;;;;;;-3.80;nan;100594.38;5044522;28;19955;-85
2023/12/01 06:49:07;;;;;;;;;;;;;;;-3.83;nan;100599.94;5045578;28;19966;-84
2023/12/01 06:51:32;;;;;;;;;;;;;;;-3.83;nan;100597.31;5046856;28;20379;-84
2023/12/01 06:53:57;;;;;;;;;;;;;;;-3.80;nan;100601.41;5043798;28;20348;-86
2023/12/01 06:56:23;;;;;;;;;;;;;;;-3.78;nan;100602.06;5045320;28;20320;-85
2023/12/01 06:58:49;;;;;;;;;;;;;;;-3.79;nan;100603.88;5037098;28;19971;-84
2023/12/01 07:01:18;;;;;;;;;;;;;;;-3.80;nan;100609.25;5045184;28;19927;-84
2023/12/01 07:03:46;;;;;;;;;;;;;;;-3.82;nan;100613.84;5047588;28;19924;-85
2023/12/01 07:06:12;;;;;;;;;;;;;;;-3.85;nan;100604.50;5048019;28;19947;-84
2023/12/01 07:08:38;;;;;;;;;;;;;;;-3.88;nan;100615.28;5041017;28;19925;-85
2023/12/01 07:11:04;;;;;;;;;;;;;;;-3.89;nan;100618.06;5045742;28;19924;-85
2023/12/01 07:13:29;;;;;;;;;;;;;;;-3.88;nan;100610.06;5045429;28;20312;-85
2023/12/01 07:15:55;;;;;;;;;;;;;;;-3.90;nan;100611.19;5043977;28;19924;-84
2023/12/01 07:18:20;;;;;;;;;;;;;;;-3.90;nan;100622.50;5047574;28;19916;-85
2023/12/01 07:20:46;;;;;;;;;;;;;;;-3.89;nan;100620.69;5042603;28;20444;-84
2023/12/01 07:23:11;;;;;;;;;;;;;;;-3.88;nan;100622.34;5044176;28;19924;-85
2023/12/01 07:25:36;;;;;;;;;;;;;;;-3.87;nan;100623.97;5046363;28;19923;-85
2023/12/01 07:28:03;;;;;;;;;;;;;;;-3.86;nan;100629.03;5044584;28;19923;-85
2023/12/01 07:30:28;;;;;;;;;;;;;;;-3.83;nan;100633.13;5052396;28;19923;-85
2023/12/01 07:32:54;;;;;;;;;;;;;;;-3.81;nan;100625.94;5044271;28;19916;-85
2023/12/01 07:35:19;;;;;;;;;;;;;;;-3.77;nan;100635.13;5042392;28;20327;-84
2023/12/01 07:37:46;;;;;;;;;;;;;;;-3.73;nan;100633.84;5042380;28;19920;-84
2023/12/01 07:40:12;;;;;;;;;;;;;;;-3.68;nan;100647.28;5041319;28;20372;-85
2023/12/01 07:42:39;;;;;;;;;;;;;;;-3.66;nan;100637.47;5042803;28;19921;-85
2023/12/01 07:45:04;;;;;;;;;;;;;;;-3.60;nan;100642.06;5045168;28;19925;-85
2023/12/01 07:47:30;;;;;;;;;;;;;;;-3.57;nan;100649.63;5039181;28;19928;-85
2023/12/01 07:49:55;;;;;;;;;;;;;;;-3.49;nan;100651.44;5042801;28;19944;-85
2023/12/01 07:52:20;;;;;;;;;;;;;;;-3.44;nan;100652.59;5045476;28;19917;-84
2023/12/01 07:54:47;;;;;;;;;;;;;;;-3.41;nan;100648.81;5041677;28;19977;-84
2023/12/01 07:57:12;;;;;;;;;;;;;;;-3.38;nan;100659.81;5043232;28;19966;-85
2023/12/01 07:59:37;;;;;;;;;;;;;;;-3.35;nan;100654.25;5043636;28;19952;-84
2023/12/01 08:02:03;;;;;;;;;;;;;;;-3.29;nan;100659.84;5049002;28;19920;-85
2023/12/01 08:04:29;;;;;;;;;;;;;;;-3.23;nan;100670.50;5052739;28;19963;-85
2023/12/01 08:06:57;;;;;;;;;;;;;;;-3.20;nan;100672.00;5046508;28;20094;-84
2023/12/01 08:09:23;;;;;;;;;;;;;;;-3.18;nan;100670.03;5040934;28;19923;-85
2023/12/01 08:11:49;;;;;;;;;;;;;;;-3.16;nan;100673.31;5050512;28;20000;-85
2023/12/01 08:14:14;;;;;;;;;;;;;;;-3.12;nan;100669.38;5041833;28;19928;-85
2023/12/01 08:16:39;;;;;;;;;;;;;;;-3.09;nan;100674.28;5040449;28;19917;-85
2023/12/01 08:19:06;;;;;;;;;;;;;;;-3.06;nan;100671.34;5044961;28;20008;-85
2023/12/01 08:21:32;;;;;;;;;;;;;;;-2.96;nan;100673.81;5044587;28;19924;-86
2023/12/01 08:23:58;;;;;;;;;;;;;;;-2.87;nan;100680.69;5047469;28;19986;-84
2023/12/01 08:26:23;;;;;;;;;;;;;;;-2.76;nan;100680.41;5044893;28;19936;-84
2023/12/01 08:28:49;;;;;;;;;;;;;;;-2.62;nan;100692.88;5041962;28;19925;-84
2023/12/01 08:31:14;;;;;;;;;;;;;;;-2.56;nan;100686.94;5041138;28;20387;-84
2023/12/01 08:33:41;;;;;;;;;;;;;;;-2.51;nan;100689.09;5040883;28;20212;-86
2023/12/01 08:36:07;;;;;;;;;;;;;;;-2.41;nan;100692.38;5044325;28;19923;-84
2023/12/01 08:38:32;;;;;;;;;;;;;;;-2.31;nan;100687.78;5045778;28;19924;-84
2023/12/01 08:40:58;;;;;;;;;;;;;;;-2.19;nan;100694.31;5045740;28;19924;-83
2023/12/01 08:43:23;;;;;;;;;;;;;;;-2.04;nan;100697.06;5041514;28;19932;-84
2023/12/01 08:45:48;;;;;;;;;;;;;;;-1.91;nan;100694.75;5040469;28;19920;-84
2023/12/01 08:48:14;;;;;;;;;;;;;;;-1.77;nan;100698.50;5045749;28;19956;-84
2023/12/01 08:50:39;;;;;;;;;;;;;;;-1.67;nan;100704.34;5043174;28;20288;-84
2023/12/01 08:53:05;;;;;;;;;;;;;;;-1.59;nan;100696.47;5044322;28;20057;-85
2023/12/01 08:55:31;;;;;;;;;;;;;;;-1.49;nan;100700.69;5042764;28;19924;-85
2023/12/01 08:57:56;;;;;;;;;;;;;;;-1.39;nan;100699.50;5041192;28;19924;-85
2023/12/01 09:00:21;;;;;;;;;;;;;;;-1.34;nan;100705.06;5040818;28;20016;-84
2023/12/01 09:02:48;;;;;;;;;;;;;;;-1.27;nan;100713.06;5042464;28;19920;-84
2023/12/01 09:05:14;;;;;;;;;;;;;;;-1.20;nan;100715.84;5044130;28;20062;-84
2023/12/01 09:07:39;;;;;;;;;;;;;;;-1.11;nan;100720.88;5044423;28;19995;-84
2023/12/01 09:10:05;;;;;;;;;;;;;;;-1.06;nan;100731.72;5046460;28;19917;-84
2023/12/01 09:12:30;;;;;;;;;;;;;;;-0.95;nan;100725.22;5043938;28;20004;-85
2023/12/01 09:14:56;;;;;;;;;;;;;;;-0.85;nan;100727.66;5046206;28;19924;-84
2023/12/01 09:17:21;;;;;;;;;;;;;;;-0.73;nan;100731.50;5043500;28;19921;-84
2023/12/01 09:19:47;;;;;;;;;;;;;;;-0.64;nan;100727.81;5045311;28;20817;-85
2023/12/01 09:22:12;;;;;;;;;;;;;;;-0.55;nan;100737.28;5049096;28;19917;-83
2023/12/01 09:24:37;;;;;;;;;;;;;;;-0.45;nan;100737.88;5038604;28;19925;-84
2023/12/01 09:27:03;;;;;;;;;;;;;;;-0.34;nan;100741.91;5042635;28;20248;-85
2023/12/01 09:29:28;;;;;;;;;;;;;;;-0.23;nan;100735.41;5043659;28;20027;-84
2023/12/01 09:31:53;;;;;;;;;;;;;;;-0.15;nan;100735.34;5043833;28;19967;-84
2023/12/01 09:34:19;;;;;;;;;;;;;;;-0.03;nan;100741.78;5041182;28;19921;-84
2023/12/01 09:36:44;;;;;;;;;;;;;;;0.10;nan;100736.72;5039679;28;21561;-85
2023/12/01 09:39:10;;;;;;;;;;;;;;;0.25;nan;100742.03;5046284;28;19925;-84
2023/12/01 09:41:36;;;;;;;;;;;;;;;0.40;nan;100747.31;5041197;28;19921;-83
2023/12/01 09:44:02;;;;;;;;;;;;;;;0.52;nan;100751.09;5043440;28;20408;-83
2023/12/01 09:46:34;;;;;;;;;;;;;;;0.70;nan;100745.47;5041200;28;19920;-85
2023/12/01 09:48:59;;;;;;;;;;;;;;;0.93;nan;100740.91;5043769;28;20419;-84
2023/12/01 09:51:25;;;;;;;;;;;;;;;1.15;nan;100736.47;5042845;28;19917;-85
2023/12/01 09:53:50;;;;;;;;;;;;;;;1.40;nan;100734.28;5041753;28;20374;-85
2023/12/01 09:56:16;;;;;;;;;;;;;;;1.63;nan;100719.06;5042195;28;19917;-85
2023/12/01 09:58:42;;;;;;;;;;;;;;;1.89;nan;100729.03;5042504;28;20606;-85
2023/12/01 10:01:07;;;;;;;;;;;;;;;2.12;nan;100740.16;5044541;28;20029;-85
2023/12/01 10:03:32;;;;;;;;;;;;;;;2.38;nan;100728.16;5039469;28;19920;-85
2023/12/01 10:05:58;;;;;;;;;;;;;;;2.60;nan;100732.31;5041389;28;20411;-84
2023/12/01 10:08:24;;;;;;;;;;;;;;;2.76;nan;100725.88;5042428;28;19925;-84
2023/12/01 10:10:49;;;;;;;;;;;;;;;2.86;nan;100721.03;5049046;28;19963;-85
2023/12/01 10:13:15;;;;;;;;;;;;;;;3.04;nan;100717.84;5047734;28;19917;-83
2023/12/01 10:15:40;;;;;;;;;;;;;;;3.21;nan;100728.88;5044203;28;19989;-84
2023/12/01 10:18:23;;;;;;;;;;;;;;;3.31;nan;100722.19;5043516;28;20011;-84
2023/12/01 10:20:57;;;;;;;;;;;;;;;3.53;nan;100725.47;5041772;28;20332;-84
2023/12/01 10:23:23;;;;;;;;;;;;;;;3.65;nan;100725.69;5041107;28;20019;-84
2023/12/01 10:25:49;;;;;;;;;;;;;;;3.64;nan;100719.59;5045390;28;19996;-84
2023/12/01 10:28:16;;;;;;;;;;;;;;;3.56;nan;100722.41;5043362;28;19921;-83
2023/12/01 10:30:58;;;;;;;;;;;;;;;3.71;nan;100719.56;5043202;28;19927;-84
2023/12/01 10:33:24;;;;;;;;;;;;;;;3.92;nan;100721.19;5043574;28;19987;-84
2023/12/01 10:35:58;;;;;;;;;;;;;;;4.20;nan;100729.75;5043184;28;20019;-84
2023/12/01 10:38:27;;;;;;;;;;;;;;;4.48;nan;100716.19;5041361;28;19932;-83
2023/12/01 10:40:57;;;;;;;;;;;;;;;4.69;nan;100724.94;5040610;28;19924;-83
2023/12/01 10:43:23;;;;;;;;;;;;;;;4.87;nan;100719.75;5043846;28;20448;-84
2023/12/01 10:45:49;;;;;;;;;;;;;;;5.09;nan;100718.41;5041899;28;19999;-84
2023/12/01 10:48:16;;;;;;;;;;;;;;;5.33;nan;100713.38;5041729;28;20454;-84
2023/12/01 10:50:42;;;;;;;;;;;;;;;5.50;nan;100716.31;5040740;28;19928;-83
2023/12/01 10:53:09;;;;;;;;;;;;;;;5.64;nan;100710.69;5044379;28;19920;-83
2023/12/01 10:55:34;;;;;;;;;;;;;;;5.85;nan;100716.66;5044977;28;19952;-85
2023/12/01 10:58:02;;;;;;;;;;;;;;;6.05;nan;100712.81;5039923;28;19971;-83
2023/12/01 11:00:30;;;;;;;;;;;;;;;6.23;nan;100716.56;5042532;28;19960;-84
2023/12/01 11:02:58;;;;;;;;;;;;;;;6.36;nan;100703.94;5043179;28;19924;-84
2023/12/01 11:05:25;;;;;;;;;;;;;;;6.49;nan;100712.81;5042542;28;19986;-84
2023/12/01 11:08:02;;;;;;;;;;;;;;;6.63;nan;100708.94;5045085;28;19917;-83
2023/12/01 11:10:37;;;;;;;;;;;;;;;6.73;nan;100711.09;5041726;28;19959;-84
2023/12/01 11:13:05;;;;;;;;;;;;;;;6.84;nan;100708.50;5038758;28;19955;-84
2023/12/01 11:15:33;;;;;;;;;;;;;;;6.95;nan;100712.25;5039797;28;20787;-83
2023/12/01 11:17:59;;;;;;;;;;;;;;;6.98;nan;100706.47;5044753;28;19920;-84
2023/12/01 11:20:32;;;;;;;;;;;;;;;6.98;nan;100717.13;5043471;28;19990;-83
2023/12/01 11:23:10;;;;;;;;;;;;;;;7.10;nan;100714.50;5037551;28;19921;-83
2023/12/01 11:25:41;;;;;;;;;;;;;;;7.21;nan;100711.09;5042370;28;19925;-84
2023/12/01 11:30:58;;;;;;;;;;;;;;;7.61;nan;100711.31;5041344;28;20345;-83
2023/12/01 11:33:31;;;;;;;;;;;;;;;7.70;nan;100709.09;5043279;28;19979;-84
2023/12/01 11:36:15;;;;;;;;;;;;;;;7.69;nan;100715.47;5043013;28;19925;-83
2023/12/01 11:38:59;;;;;;;;;;;;;;;7.75;nan;100714.59;5042966;28;20518;-84
2023/12/01 11:41:24;;;;;;;;;;;;;;;7.82;nan;100712.59;5044258;28;20392;-83
2023/12/01 11:44:01;;;;;;;;;;;;;;;7.94;nan;100715.28;5044639;28;19963;-84
2023/12/01 11:46:26;;;;;;;;;;;;;;;8.19;nan;100718.53;5043551;28;19917;-84
2023/12/01 11:48:52;;;;;;;;;;;;;;;8.46;nan;100724.25;5044944;28;19923;-84
2023/12/01 11:51:21;;;;;;;;;;;;;;;8.72;nan;100720.22;5046245;28;20848;-84
2023/12/01 11:53:54;;;;;;;;;;;;;;;8.99;nan;100728.53;5047799;28;19917;-84
2023/12/01 11:56:21;;;;;;;;;;;;;;;9.20;nan;100716.34;5044709;28;20594;-83
2023/12/01 11:58:47;;;;;;;;;;;;;;;9.37;nan;100712.66;5045185;28;19921;-83
2023/12/01 12:01:12;;;;;;;;;;;;;;;9.53;nan;100708.41;5044511;28;20320;-84
2023/12/01 12:03:37;;;;;;;;;;;;;;;9.71;nan;100717.25;5044192;28;19985;-85
2023/12/01 12:06:03;;;;;;;;;;;;;;;9.76;nan;100711.97;5047202;28;19928;-84
2023/12/01 12:08:28;;;;;;;;;;;;;;;9.81;nan;100712.84;5044626;28;19924;-84
2023/12/01 12:10:53;;;;;;;;;;;;;;;9.86;nan;100712.91;5048753;28;19978;-84
2023/12/01 12:13:19;;;;;;;;;;;;;;;9.99;nan;100719.81;5046932;28;19990;-85
2023/12/01 12:15:44;;;;;;;;;;;;;;;10.13;nan;100714.94;5046911;28;20368;-84
2023/12/01 12:18:13;;;;;;;;;;;;;;;10.21;nan;100714.53;5039720;28;20364;-84
2023/12/01 12:20:38;;;;;;;;;;;;;;;10.25;nan;100716.50;5047543;28;20102;-84
2023/12/01 12:23:04;;;;;;;;;;;;;;;10.27;nan;100709.03;5039728;28;20475;-83
2023/12/01 12:25:38;;;;;;;;;;;;;;;10.21;nan;100711.88;5039848;28;19920;-84
2023/12/01 12:28:10;;;;;;;;;;;;;;;10.04;nan;100711.84;5033899;28;19925;-84
2023/12/01 12:30:35;;;;;;;;;;;;;;;9.67;nan;100712.34;5044261;28;19921;-84
2023/12/01 12:33:01;;;;;;;;;;;;;;;9.32;nan;100717.91;5043351;28;19995;-84
2023/12/01 12:35:26;;;;;;;;;;;;;;;8.98;nan;100716.22;5039851;28;20273;-84
2023/12/01 12:37:52;;;;;;;;;;;;;;;8.70;nan;100722.34;5037627;28;20003;-84
2023/12/01 12:40:17;;;;;;;;;;;;;;;8.44;nan;100718.31;5039414;28;19987;-84
2023/12/01 12:42:55;;;;;;;;;;;;;;;8.21;nan;100720.97;5039173;28;20493;-84
2023/12/01 12:45:20;;;;;;;;;;;;;;;7.96;nan;100722.03;5038670;28;19917;-84
2023/12/01 12:47:46;;;;;;;;;;;;;;;7.80;nan;100720.03;5039711;28;20650;-84
2023/12/01 12:50:11;;;;;;;;;;;;;;;7.62;nan;100722.78;5036287;28;19973;-83
2023/12/01 12:52:37;;;;;;;;;;;;;;;7.86;nan;100714.56;5041543;28;19927;-86
2023/12/01 12:55:02;;;;;;;;;;;;;;;8.82;nan;100714.28;5040838;28;19920;-84
2023/12/01 12:57:29;;;;;;;;;;;;;;;9.96;nan;100713.09;5036311;28;20008;-85
2023/12/01 12:59:55;;;;;;;;;;;;;;;11.13;nan;100703.06;5039672;28;19970;-84